sensor_id;sensor_type;location;lat;lon;timestamp;P1;durP1;ratioP1;P2;durP2;ratioP2
48241;SDS011;34041;51.812;4.622;2022-10-16T00:00:43;2.60;;;1.23;;
48241;SDS011;34041;51.812;4.622;2022-10-16T00:03:44;2.08;;;0.90;;
48241;SDS011;34041;51.812;4.622;2022-10-16T00:06:45;2.38;;;1.42;;
48241;SDS011;34041;51.812;4.622;2022-10-16T00:09:45;4.40;;;1.52;;
48241;SDS011;34041;51.812;4.622;2022-10-16T00:12:45;2.65;;;1.15;;
48241;SDS011;34041;51.812;4.622;2022-10-16T00:15:46;2.63;;;1.17;;
48241;SDS011;34041;51.812;4.622;2022-10-16T00:18:46;3.53;;;1.17;;
48241;SDS011;34041;51.812;4.622;2022-10-16T00:21:46;4.90;;;1.48;;
48241;SDS011;34041;51.812;4.622;2022-10-16T00:24:47;2.83;;;1.48;;
48241;SDS011;34041;51.812;4.622;2022-10-16T00:27:47;2.20;;;1.23;;
48241;SDS011;34041;51.812;4.622;2022-10-16T00:30:47;3.13;;;1.60;;
48241;SDS011;34041;51.812;4.622;2022-10-16T00:33:47;2.43;;;1.20;;
48241;SDS011;34041;51.812;4.622;2022-10-16T00:36:48;2.25;;;1.13;;
48241;SDS011;34041;51.812;4.622;2022-10-16T00:39:48;2.95;;;1.13;;
48241;SDS011;34041;51.812;4.622;2022-10-16T00:42:49;3.08;;;1.60;;
48241;SDS011;34041;51.812;4.622;2022-10-16T00:45:49;3.13;;;1.30;;
48241;SDS011;34041;51.812;4.622;2022-10-16T00:51:55;1.85;;;1.20;;
48241;SDS011;34041;51.812;4.622;2022-10-16T00:54:55;2.70;;;1.40;;
48241;SDS011;34041;51.812;4.622;2022-10-16T00:57:56;3.20;;;1.80;;
48241;SDS011;34041;51.812;4.622;2022-10-16T01:00:57;3.03;;;1.30;;
48241;SDS011;34041;51.812;4.622;2022-10-16T01:03:57;2.60;;;1.40;;
48241;SDS011;34041;51.812;4.622;2022-10-16T01:10:06;2.70;;;1.15;;
48241;SDS011;34041;51.812;4.622;2022-10-16T01:13:09;2.13;;;1.17;;
48241;SDS011;34041;51.812;4.622;2022-10-16T01:22:16;4.00;;;1.15;;
48241;SDS011;34041;51.812;4.622;2022-10-16T01:25:30;2.95;;;0.93;;
48241;SDS011;34041;51.812;4.622;2022-10-16T01:28:37;2.08;;;1.00;;
48241;SDS011;34041;51.812;4.622;2022-10-16T01:31:39;1.85;;;1.08;;
48241;SDS011;34041;51.812;4.622;2022-10-16T01:34:54;4.03;;;1.00;;
48241;SDS011;34041;51.812;4.622;2022-10-16T01:38:08;2.05;;;1.00;;
48241;SDS011;34041;51.812;4.622;2022-10-16T01:41:11;3.25;;;1.10;;
48241;SDS011;34041;51.812;4.622;2022-10-16T01:44:17;2.10;;;1.20;;
48241;SDS011;34041;51.812;4.622;2022-10-16T01:47:18;3.35;;;1.25;;
48241;SDS011;34041;51.812;4.622;2022-10-16T01:50:21;3.33;;;1.20;;
48241;SDS011;34041;51.812;4.622;2022-10-16T01:53:23;2.53;;;1.05;;
48241;SDS011;34041;51.812;4.622;2022-10-16T01:56:24;2.78;;;1.40;;
48241;SDS011;34041;51.812;4.622;2022-10-16T01:59:25;2.15;;;1.02;;
48241;SDS011;34041;51.812;4.622;2022-10-16T02:02:26;2.08;;;1.00;;
48241;SDS011;34041;51.812;4.622;2022-10-16T02:05:31;2.75;;;1.55;;
48241;SDS011;34041;51.812;4.622;2022-10-16T02:08:32;2.15;;;1.13;;
48241;SDS011;34041;51.812;4.622;2022-10-16T02:11:32;5.35;;;1.67;;
48241;SDS011;34041;51.812;4.622;2022-10-16T02:14:32;3.92;;;1.95;;
48241;SDS011;34041;51.812;4.622;2022-10-16T02:17:33;3.90;;;1.73;;
48241;SDS011;34041;51.812;4.622;2022-10-16T02:20:34;2.13;;;1.03;;
48241;SDS011;34041;51.812;4.622;2022-10-16T02:23:37;3.45;;;1.40;;
48241;SDS011;34041;51.812;4.622;2022-10-16T02:26:51;2.03;;;1.08;;
48241;SDS011;34041;51.812;4.622;2022-10-16T02:29:53;2.92;;;1.45;;
48241;SDS011;34041;51.812;4.622;2022-10-16T02:32:58;2.78;;;1.13;;
48241;SDS011;34041;51.812;4.622;2022-10-16T02:35:59;2.95;;;1.10;;
48241;SDS011;34041;51.812;4.622;2022-10-16T02:39:00;2.35;;;1.10;;
48241;SDS011;34041;51.812;4.622;2022-10-16T02:42:01;3.67;;;1.00;;
48241;SDS011;34041;51.812;4.622;2022-10-16T02:45:01;5.20;;;1.27;;
48241;SDS011;34041;51.812;4.622;2022-10-16T02:48:01;4.35;;;1.20;;
48241;SDS011;34041;51.812;4.622;2022-10-16T02:51:02;1.63;;;1.10;;
48241;SDS011;34041;51.812;4.622;2022-10-16T02:54:02;3.17;;;0.93;;
48241;SDS011;34041;51.812;4.622;2022-10-16T02:57:03;4.15;;;1.20;;
48241;SDS011;34041;51.812;4.622;2022-10-16T03:00:04;2.00;;;0.87;;
48241;SDS011;34041;51.812;4.622;2022-10-16T03:03:05;2.05;;;0.82;;
48241;SDS011;34041;51.812;4.622;2022-10-16T03:06:05;1.87;;;1.20;;
48241;SDS011;34041;51.812;4.622;2022-10-16T03:09:06;3.55;;;1.13;;
48241;SDS011;34041;51.812;4.622;2022-10-16T03:12:06;1.60;;;0.93;;
48241;SDS011;34041;51.812;4.622;2022-10-16T03:15:06;2.28;;;1.38;;
48241;SDS011;34041;51.812;4.622;2022-10-16T03:18:07;5.70;;;1.30;;
48241;SDS011;34041;51.812;4.622;2022-10-16T03:21:07;2.92;;;1.40;;
48241;SDS011;34041;51.812;4.622;2022-10-16T03:24:07;3.27;;;1.30;;
48241;SDS011;34041;51.812;4.622;2022-10-16T03:27:08;2.57;;;1.13;;
48241;SDS011;34041;51.812;4.622;2022-10-16T03:30:08;4.47;;;1.17;;
48241;SDS011;34041;51.812;4.622;2022-10-16T03:33:08;2.63;;;0.93;;
48241;SDS011;34041;51.812;4.622;2022-10-16T03:36:09;2.00;;;1.07;;
48241;SDS011;34041;51.812;4.622;2022-10-16T03:39:09;1.70;;;0.90;;
48241;SDS011;34041;51.812;4.622;2022-10-16T03:42:09;2.15;;;1.00;;
48241;SDS011;34041;51.812;4.622;2022-10-16T03:45:10;2.03;;;0.90;;
48241;SDS011;34041;51.812;4.622;2022-10-16T03:48:10;1.98;;;0.98;;
48241;SDS011;34041;51.812;4.622;2022-10-16T03:51:11;2.53;;;1.15;;
48241;SDS011;34041;51.812;4.622;2022-10-16T03:54:11;1.73;;;0.90;;
48241;SDS011;34041;51.812;4.622;2022-10-16T03:57:11;3.58;;;1.38;;
48241;SDS011;34041;51.812;4.622;2022-10-16T04:00:12;1.63;;;0.87;;
48241;SDS011;34041;51.812;4.622;2022-10-16T04:03:12;3.63;;;0.80;;
48241;SDS011;34041;51.812;4.622;2022-10-16T04:06:13;1.75;;;0.88;;
48241;SDS011;34041;51.812;4.622;2022-10-16T04:09:13;2.07;;;1.17;;
48241;SDS011;34041;51.812;4.622;2022-10-16T04:12:13;4.27;;;1.23;;
48241;SDS011;34041;51.812;4.622;2022-10-16T04:15:13;2.77;;;0.87;;
48241;SDS011;34041;51.812;4.622;2022-10-16T04:18:14;1.38;;;0.65;;
48241;SDS011;34041;51.812;4.622;2022-10-16T04:21:14;1.90;;;0.90;;
48241;SDS011;34041;51.812;4.622;2022-10-16T04:24:14;5.00;;;1.40;;
48241;SDS011;34041;51.812;4.622;2022-10-16T04:27:14;2.67;;;0.93;;
48241;SDS011;34041;51.812;4.622;2022-10-16T04:30:15;5.00;;;1.20;;
48241;SDS011;34041;51.812;4.622;2022-10-16T04:33:15;1.73;;;1.02;;
48241;SDS011;34041;51.812;4.622;2022-10-16T04:36:15;1.40;;;0.83;;
48241;SDS011;34041;51.812;4.622;2022-10-16T04:39:16;2.03;;;0.87;;
48241;SDS011;34041;51.812;4.622;2022-10-16T04:42:16;2.47;;;1.03;;
48241;SDS011;34041;51.812;4.622;2022-10-16T04:45:16;2.10;;;0.90;;
48241;SDS011;34041;51.812;4.622;2022-10-16T04:48:17;1.60;;;0.90;;
48241;SDS011;34041;51.812;4.622;2022-10-16T04:51:17;3.22;;;1.30;;
48241;SDS011;34041;51.812;4.622;2022-10-16T04:54:18;2.33;;;0.90;;
48241;SDS011;34041;51.812;4.622;2022-10-16T04:57:19;2.13;;;1.13;;
48241;SDS011;34041;51.812;4.622;2022-10-16T05:00:19;1.70;;;0.90;;
48241;SDS011;34041;51.812;4.622;2022-10-16T05:03:19;2.05;;;1.00;;
48241;SDS011;34041;51.812;4.622;2022-10-16T05:06:20;1.50;;;0.70;;
48241;SDS011;34041;51.812;4.622;2022-10-16T05:09:20;1.60;;;0.80;;
48241;SDS011;34041;51.812;4.622;2022-10-16T05:12:20;2.58;;;1.02;;
48241;SDS011;34041;51.812;4.622;2022-10-16T05:15:20;1.57;;;1.07;;
48241;SDS011;34041;51.812;4.622;2022-10-16T05:18:20;2.63;;;1.10;;
48241;SDS011;34041;51.812;4.622;2022-10-16T05:21:21;3.93;;;1.20;;
48241;SDS011;34041;51.812;4.622;2022-10-16T05:24:21;3.70;;;0.93;;
48241;SDS011;34041;51.812;4.622;2022-10-16T05:27:21;1.85;;;0.93;;
48241;SDS011;34041;51.812;4.622;2022-10-16T05:30:21;2.80;;;1.00;;
48241;SDS011;34041;51.812;4.622;2022-10-16T05:33:23;1.70;;;0.75;;
48241;SDS011;34041;51.812;4.622;2022-10-16T05:36:23;1.88;;;0.80;;
48241;SDS011;34041;51.812;4.622;2022-10-16T05:39:23;2.00;;;0.93;;
48241;SDS011;34041;51.812;4.622;2022-10-16T05:42:23;2.77;;;1.00;;
48241;SDS011;34041;51.812;4.622;2022-10-16T05:45:24;2.00;;;0.90;;
48241;SDS011;34041;51.812;4.622;2022-10-16T05:48:24;1.90;;;0.80;;
48241;SDS011;34041;51.812;4.622;2022-10-16T05:51:24;1.63;;;0.83;;
48241;SDS011;34041;51.812;4.622;2022-10-16T05:54:24;2.63;;;0.90;;
48241;SDS011;34041;51.812;4.622;2022-10-16T05:57:25;2.47;;;0.87;;
48241;SDS011;34041;51.812;4.622;2022-10-16T06:00:25;1.77;;;0.80;;
48241;SDS011;34041;51.812;4.622;2022-10-16T06:03:25;3.07;;;0.93;;
48241;SDS011;34041;51.812;4.622;2022-10-16T06:06:27;2.92;;;0.90;;
48241;SDS011;34041;51.812;4.622;2022-10-16T06:09:27;2.60;;;1.20;;
48241;SDS011;34041;51.812;4.622;2022-10-16T06:12:28;2.08;;;1.00;;
48241;SDS011;34041;51.812;4.622;2022-10-16T06:15:29;2.47;;;1.13;;
48241;SDS011;34041;51.812;4.622;2022-10-16T06:18:29;3.67;;;0.98;;
48241;SDS011;34041;51.812;4.622;2022-10-16T06:21:30;3.05;;;1.45;;
48241;SDS011;34041;51.812;4.622;2022-10-16T06:24:30;2.43;;;1.07;;
48241;SDS011;34041;51.812;4.622;2022-10-16T06:27:30;3.38;;;0.93;;
48241;SDS011;34041;51.812;4.622;2022-10-16T06:30:30;4.53;;;1.10;;
48241;SDS011;34041;51.812;4.622;2022-10-16T06:33:31;2.30;;;1.27;;
48241;SDS011;34041;51.812;4.622;2022-10-16T06:36:31;1.55;;;0.75;;
48241;SDS011;34041;51.812;4.622;2022-10-16T06:39:32;3.15;;;1.00;;
48241;SDS011;34041;51.812;4.622;2022-10-16T06:42:32;5.27;;;1.37;;
48241;SDS011;34041;51.812;4.622;2022-10-16T06:45:32;1.63;;;1.00;;
48241;SDS011;34041;51.812;4.622;2022-10-16T06:48:32;1.53;;;0.93;;
48241;SDS011;34041;51.812;4.622;2022-10-16T06:51:33;3.73;;;1.03;;
48241;SDS011;34041;51.812;4.622;2022-10-16T06:54:35;2.28;;;1.27;;
48241;SDS011;34041;51.812;4.622;2022-10-16T06:57:35;1.93;;;0.80;;
48241;SDS011;34041;51.812;4.622;2022-10-16T07:00:35;2.33;;;1.17;;
48241;SDS011;34041;51.812;4.622;2022-10-16T07:03:36;3.40;;;1.30;;
48241;SDS011;34041;51.812;4.622;2022-10-16T07:06:37;3.63;;;1.30;;
48241;SDS011;34041;51.812;4.622;2022-10-16T07:09:37;2.77;;;1.10;;
48241;SDS011;34041;51.812;4.622;2022-10-16T07:12:37;5.37;;;1.93;;
48241;SDS011;34041;51.812;4.622;2022-10-16T07:15:37;2.00;;;1.30;;
48241;SDS011;34041;51.812;4.622;2022-10-16T07:18:38;1.93;;;1.00;;
48241;SDS011;34041;51.812;4.622;2022-10-16T07:21:40;4.43;;;0.98;;
48241;SDS011;34041;51.812;4.622;2022-10-16T07:24:40;2.35;;;0.90;;
48241;SDS011;34041;51.812;4.622;2022-10-16T07:27:41;2.77;;;0.73;;
48241;SDS011;34041;51.812;4.622;2022-10-16T07:30:41;3.13;;;1.10;;
48241;SDS011;34041;51.812;4.622;2022-10-16T07:33:41;1.60;;;0.87;;
48241;SDS011;34041;51.812;4.622;2022-10-16T07:36:44;4.65;;;1.08;;
48241;SDS011;34041;51.812;4.622;2022-10-16T07:39:44;12.60;;;1.50;;
48241;SDS011;34041;51.812;4.622;2022-10-16T07:42:44;2.37;;;0.70;;
48241;SDS011;34041;51.812;4.622;2022-10-16T07:45:48;3.50;;;1.13;;
48241;SDS011;34041;51.812;4.622;2022-10-16T07:48:49;7.38;;;1.98;;
48241;SDS011;34041;51.812;4.622;2022-10-16T07:51:49;6.03;;;1.50;;
48241;SDS011;34041;51.812;4.622;2022-10-16T07:54:49;7.27;;;2.50;;
48241;SDS011;34041;51.812;4.622;2022-10-16T07:57:49;6.90;;;2.38;;
48241;SDS011;34041;51.812;4.622;2022-10-16T08:00:50;10.07;;;2.43;;
48241;SDS011;34041;51.812;4.622;2022-10-16T08:03:50;7.07;;;2.83;;
48241;SDS011;34041;51.812;4.622;2022-10-16T08:06:51;8.05;;;3.33;;
48241;SDS011;34041;51.812;4.622;2022-10-16T08:09:51;6.93;;;2.50;;
48241;SDS011;34041;51.812;4.622;2022-10-16T08:12:52;5.53;;;2.13;;
48241;SDS011;34041;51.812;4.622;2022-10-16T08:15:53;5.70;;;2.17;;
48241;SDS011;34041;51.812;4.622;2022-10-16T08:18:53;4.40;;;1.90;;
48241;SDS011;34041;51.812;4.622;2022-10-16T08:21:54;5.05;;;2.33;;
48241;SDS011;34041;51.812;4.622;2022-10-16T08:24:54;4.00;;;1.80;;
48241;SDS011;34041;51.812;4.622;2022-10-16T08:27:54;5.40;;;3.00;;
48241;SDS011;34041;51.812;4.622;2022-10-16T08:30:54;4.95;;;1.92;;
48241;SDS011;34041;51.812;4.622;2022-10-16T08:33:56;5.35;;;1.85;;
48241;SDS011;34041;51.812;4.622;2022-10-16T08:36:56;7.80;;;2.45;;
48241;SDS011;34041;51.812;4.622;2022-10-16T08:39:57;5.97;;;1.40;;
48241;SDS011;34041;51.812;4.622;2022-10-16T08:49:33;4.15;;;1.55;;
48241;SDS011;34041;51.812;4.622;2022-10-16T08:52:34;5.93;;;2.60;;
48241;SDS011;34041;51.812;4.622;2022-10-16T08:55:41;3.67;;;2.10;;
48241;SDS011;34041;51.812;4.622;2022-10-16T08:58:42;5.80;;;1.88;;
48241;SDS011;34041;51.812;4.622;2022-10-16T09:01:45;3.78;;;1.50;;
48241;SDS011;34041;51.812;4.622;2022-10-16T09:04:50;4.43;;;1.52;;
48241;SDS011;34041;51.812;4.622;2022-10-16T09:10:56;2.77;;;1.13;;
48241;SDS011;34041;51.812;4.622;2022-10-16T09:14:12;5.25;;;1.67;;
48241;SDS011;34041;51.812;4.622;2022-10-16T09:20:28;6.78;;;1.42;;
48241;SDS011;34041;51.812;4.622;2022-10-16T09:23:30;3.77;;;1.43;;
48241;SDS011;34041;51.812;4.622;2022-10-16T09:26:34;6.37;;;1.70;;
48241;SDS011;34041;51.812;4.622;2022-10-16T09:29:34;3.17;;;1.27;;
48241;SDS011;34041;51.812;4.622;2022-10-16T09:32:34;11.67;;;1.60;;
48241;SDS011;34041;51.812;4.622;2022-10-16T09:35:38;6.43;;;1.98;;
48241;SDS011;34041;51.812;4.622;2022-10-16T09:38:39;3.22;;;1.20;;
48241;SDS011;34041;51.812;4.622;2022-10-16T09:41:40;4.43;;;1.75;;
48241;SDS011;34041;51.812;4.622;2022-10-16T09:44:41;8.70;;;1.98;;
48241;SDS011;34041;51.812;4.622;2022-10-16T09:47:42;6.05;;;2.05;;
48241;SDS011;34041;51.812;4.622;2022-10-16T09:50:43;6.82;;;1.85;;
48241;SDS011;34041;51.812;4.622;2022-10-16T09:53:44;6.47;;;2.03;;
48241;SDS011;34041;51.812;4.622;2022-10-16T09:56:44;12.75;;;2.83;;
48241;SDS011;34041;51.812;4.622;2022-10-16T09:59:52;7.55;;;1.88;;
48241;SDS011;34041;51.812;4.622;2022-10-16T10:02:53;8.75;;;2.22;;
48241;SDS011;34041;51.812;4.622;2022-10-16T10:05:54;6.22;;;2.00;;
48241;SDS011;34041;51.812;4.622;2022-10-16T10:08:59;6.73;;;2.70;;
48241;SDS011;34041;51.812;4.622;2022-10-16T10:12:00;8.43;;;2.40;;
48241;SDS011;34041;51.812;4.622;2022-10-16T10:15:10;5.43;;;1.98;;
48241;SDS011;34041;51.812;4.622;2022-10-16T10:18:16;9.43;;;1.73;;
48241;SDS011;34041;51.812;4.622;2022-10-16T10:24:18;7.45;;;1.73;;
48241;SDS011;34041;51.812;4.622;2022-10-16T10:27:19;10.27;;;2.65;;
48241;SDS011;34041;51.812;4.622;2022-10-16T10:30:24;6.50;;;1.90;;
48241;SDS011;34041;51.812;4.622;2022-10-16T10:33:30;8.60;;;2.25;;
48241;SDS011;34041;51.812;4.622;2022-10-16T10:36:35;8.00;;;1.88;;
48241;SDS011;34041;51.812;4.622;2022-10-16T10:39:39;9.98;;;2.15;;
48241;SDS011;34041;51.812;4.622;2022-10-16T10:42:48;11.18;;;2.58;;
48241;SDS011;34041;51.812;4.622;2022-10-16T10:45:52;8.35;;;1.70;;
48241;SDS011;34041;51.812;4.622;2022-10-16T10:55:19;8.67;;;2.37;;
48241;SDS011;34041;51.812;4.622;2022-10-16T11:07:58;6.18;;;2.00;;
48241;SDS011;34041;51.812;4.622;2022-10-16T11:11:01;15.65;;;2.40;;
48241;SDS011;34041;51.812;4.622;2022-10-16T11:20:19;10.10;;;2.38;;
48241;SDS011;34041;51.812;4.622;2022-10-16T11:23:25;8.30;;;1.83;;
48241;SDS011;34041;51.812;4.622;2022-10-16T11:26:28;5.55;;;1.23;;
48241;SDS011;34041;51.812;4.622;2022-10-16T11:29:32;6.82;;;2.20;;
48241;SDS011;34041;51.812;4.622;2022-10-16T11:32:35;10.50;;;2.42;;
48241;SDS011;34041;51.812;4.622;2022-10-16T11:45:53;5.25;;;1.50;;
48241;SDS011;34041;51.812;4.622;2022-10-16T11:48:24;7.18;;;1.92;;
48241;SDS011;34041;51.812;4.622;2022-10-16T11:57:33;5.88;;;1.73;;
48241;SDS011;34041;51.812;4.622;2022-10-16T12:00:38;13.07;;;2.83;;
48241;SDS011;34041;51.812;4.622;2022-10-16T12:06:41;5.50;;;1.87;;
48241;SDS011;34041;51.812;4.622;2022-10-16T12:09:42;4.78;;;1.90;;
48241;SDS011;34041;51.812;4.622;2022-10-16T12:12:43;5.65;;;1.70;;
48241;SDS011;34041;51.812;4.622;2022-10-16T12:15:45;6.68;;;1.45;;
48241;SDS011;34041;51.812;4.622;2022-10-16T12:18:46;8.27;;;3.03;;
48241;SDS011;34041;51.812;4.622;2022-10-16T12:21:46;7.15;;;1.90;;
48241;SDS011;34041;51.812;4.622;2022-10-16T12:24:50;6.95;;;2.17;;
48241;SDS011;34041;51.812;4.622;2022-10-16T12:28:25;6.35;;;1.90;;
48241;SDS011;34041;51.812;4.622;2022-10-16T12:31:17;8.82;;;2.67;;
48241;SDS011;34041;51.812;4.622;2022-10-16T12:34:27;9.55;;;2.25;;
48241;SDS011;34041;51.812;4.622;2022-10-16T12:37:29;7.55;;;2.05;;
48241;SDS011;34041;51.812;4.622;2022-10-16T17:37:31;9.15;;;3.10;;
48241;SDS011;34041;51.812;4.622;2022-10-16T17:40:32;8.53;;;3.33;;
48241;SDS011;34041;51.812;4.622;2022-10-16T17:43:32;8.80;;;3.20;;
48241;SDS011;34041;51.812;4.622;2022-10-16T17:46:33;7.43;;;3.03;;
48241;SDS011;34041;51.812;4.622;2022-10-16T17:49:33;7.90;;;3.42;;
48241;SDS011;34041;51.812;4.622;2022-10-16T17:52:33;8.88;;;3.38;;
48241;SDS011;34041;51.812;4.622;2022-10-16T17:55:40;9.50;;;3.50;;
48241;SDS011;34041;51.812;4.622;2022-10-16T17:58:41;8.98;;;3.30;;
48241;SDS011;34041;51.812;4.622;2022-10-16T18:01:42;8.27;;;2.90;;
48241;SDS011;34041;51.812;4.622;2022-10-16T18:04:44;8.55;;;2.92;;
48241;SDS011;34041;51.812;4.622;2022-10-16T18:07:45;7.47;;;3.13;;
48241;SDS011;34041;51.812;4.622;2022-10-16T18:10:45;8.38;;;3.22;;
48241;SDS011;34041;51.812;4.622;2022-10-16T18:13:46;7.97;;;2.80;;
48241;SDS011;34041;51.812;4.622;2022-10-16T18:16:46;6.40;;;2.83;;
48241;SDS011;34041;51.812;4.622;2022-10-16T18:19:47;7.25;;;2.65;;
48241;SDS011;34041;51.812;4.622;2022-10-16T18:22:47;8.47;;;2.87;;
48241;SDS011;34041;51.812;4.622;2022-10-16T18:25:50;6.90;;;2.70;;
48241;SDS011;34041;51.812;4.622;2022-10-16T18:28:51;5.88;;;2.47;;
48241;SDS011;34041;51.812;4.622;2022-10-16T18:31:52;8.05;;;2.67;;
48241;SDS011;34041;51.812;4.622;2022-10-16T18:34:52;5.45;;;2.53;;
48241;SDS011;34041;51.812;4.622;2022-10-16T18:37:53;6.47;;;2.47;;
48241;SDS011;34041;51.812;4.622;2022-10-16T18:40:58;6.82;;;2.55;;
48241;SDS011;34041;51.812;4.622;2022-10-16T18:44:00;4.90;;;2.35;;
48241;SDS011;34041;51.812;4.622;2022-10-16T18:47:01;7.13;;;2.80;;
48241;SDS011;34041;51.812;4.622;2022-10-16T18:50:01;5.75;;;2.42;;
48241;SDS011;34041;51.812;4.622;2022-10-16T18:53:01;5.05;;;3.05;;
48241;SDS011;34041;51.812;4.622;2022-10-16T18:56:02;5.05;;;3.00;;
48241;SDS011;34041;51.812;4.622;2022-10-16T18:59:03;5.85;;;3.53;;
48241;SDS011;34041;51.812;4.622;2022-10-16T19:02:03;9.52;;;3.30;;
48241;SDS011;34041;51.812;4.622;2022-10-16T19:05:04;7.67;;;3.03;;
48241;SDS011;34041;51.812;4.622;2022-10-16T19:08:04;5.88;;;3.33;;
48241;SDS011;34041;51.812;4.622;2022-10-16T19:11:08;11.07;;;3.77;;
48241;SDS011;34041;51.812;4.622;2022-10-16T19:17:09;8.88;;;3.78;;
48241;SDS011;34041;51.812;4.622;2022-10-16T19:20:09;7.10;;;3.70;;
48241;SDS011;34041;51.812;4.622;2022-10-16T19:23:09;10.63;;;4.47;;
48241;SDS011;34041;51.812;4.622;2022-10-16T19:26:11;5.97;;;3.78;;
48241;SDS011;34041;51.812;4.622;2022-10-16T19:29:12;8.85;;;4.05;;
48241;SDS011;34041;51.812;4.622;2022-10-16T19:32:12;5.40;;;3.22;;
48241;SDS011;34041;51.812;4.622;2022-10-16T19:35:12;8.17;;;3.57;;
48241;SDS011;34041;51.812;4.622;2022-10-16T19:38:12;6.47;;;2.87;;
48241;SDS011;34041;51.812;4.622;2022-10-16T19:41:14;7.53;;;3.57;;
48241;SDS011;34041;51.812;4.622;2022-10-16T19:44:14;6.28;;;3.30;;
48241;SDS011;34041;51.812;4.622;2022-10-16T19:47:15;6.63;;;3.35;;
48241;SDS011;34041;51.812;4.622;2022-10-16T19:50:15;6.80;;;4.40;;
48241;SDS011;34041;51.812;4.622;2022-10-16T19:53:17;4.30;;;2.72;;
48241;SDS011;34041;51.812;4.622;2022-10-16T19:56:18;6.70;;;3.53;;
48241;SDS011;34041;51.812;4.622;2022-10-16T19:59:20;7.07;;;3.38;;
48241;SDS011;34041;51.812;4.622;2022-10-16T20:02:20;7.23;;;3.90;;
48241;SDS011;34041;51.812;4.622;2022-10-16T20:05:21;5.93;;;3.40;;
48241;SDS011;34041;51.812;4.622;2022-10-16T20:08:21;4.70;;;2.47;;
48241;SDS011;34041;51.812;4.622;2022-10-16T20:11:23;10.32;;;2.92;;
48241;SDS011;34041;51.812;4.622;2022-10-16T20:14:23;8.90;;;3.10;;
48241;SDS011;34041;51.812;4.622;2022-10-16T20:17:23;6.87;;;2.90;;
48241;SDS011;34041;51.812;4.622;2022-10-16T20:20:24;5.93;;;3.00;;
48241;SDS011;34041;51.812;4.622;2022-10-16T20:23:24;4.97;;;2.43;;
48241;SDS011;34041;51.812;4.622;2022-10-16T20:26:24;7.40;;;3.03;;
48241;SDS011;34041;51.812;4.622;2022-10-16T20:29:27;8.07;;;3.47;;
48241;SDS011;34041;51.812;4.622;2022-10-16T20:32:28;5.53;;;2.55;;
48241;SDS011;34041;51.812;4.622;2022-10-16T20:35:29;4.85;;;2.92;;
48241;SDS011;34041;51.812;4.622;2022-10-16T20:38:33;8.13;;;2.90;;
48241;SDS011;34041;51.812;4.622;2022-10-16T20:41:35;5.88;;;2.30;;
48241;SDS011;34041;51.812;4.622;2022-10-16T20:44:36;6.93;;;3.08;;
48241;SDS011;34041;51.812;4.622;2022-10-16T20:47:36;5.97;;;2.50;;
48241;SDS011;34041;51.812;4.622;2022-10-16T20:50:36;8.57;;;2.78;;
48241;SDS011;34041;51.812;4.622;2022-10-16T20:53:37;5.00;;;2.53;;
48241;SDS011;34041;51.812;4.622;2022-10-16T20:56:37;6.63;;;2.73;;
48241;SDS011;34041;51.812;4.622;2022-10-16T20:59:37;6.53;;;3.08;;
48241;SDS011;34041;51.812;4.622;2022-10-16T21:02:37;5.13;;;2.40;;
48241;SDS011;34041;51.812;4.622;2022-10-16T21:05:41;4.68;;;2.67;;
48241;SDS011;34041;51.812;4.622;2022-10-16T21:08:42;4.90;;;2.63;;
48241;SDS011;34041;51.812;4.622;2022-10-16T21:11:42;4.85;;;2.10;;
48241;SDS011;34041;51.812;4.622;2022-10-16T21:14:42;5.17;;;2.30;;
48241;SDS011;34041;51.812;4.622;2022-10-16T21:17:42;5.93;;;3.63;;
48241;SDS011;34041;51.812;4.622;2022-10-16T21:20:42;5.87;;;2.23;;
48241;SDS011;34041;51.812;4.622;2022-10-16T21:23:43;6.03;;;2.27;;
48241;SDS011;34041;51.812;4.622;2022-10-16T21:26:43;3.43;;;2.13;;
48241;SDS011;34041;51.812;4.622;2022-10-16T21:29:43;4.75;;;2.22;;
48241;SDS011;34041;51.812;4.622;2022-10-16T21:32:44;3.27;;;2.30;;
48241;SDS011;34041;51.812;4.622;2022-10-16T21:35:44;7.63;;;2.87;;
48241;SDS011;34041;51.812;4.622;2022-10-16T21:38:44;3.47;;;2.23;;
48241;SDS011;34041;51.812;4.622;2022-10-16T21:41:46;4.68;;;2.78;;
48241;SDS011;34041;51.812;4.622;2022-10-16T21:44:46;5.93;;;2.70;;
48241;SDS011;34041;51.812;4.622;2022-10-16T21:47:46;3.93;;;3.03;;
48241;SDS011;34041;51.812;4.622;2022-10-16T21:50:47;4.57;;;2.25;;
48241;SDS011;34041;51.812;4.622;2022-10-16T21:53:47;4.38;;;2.40;;
48241;SDS011;34041;51.812;4.622;2022-10-16T21:56:47;5.78;;;2.70;;
48241;SDS011;34041;51.812;4.622;2022-10-16T21:59:48;5.90;;;2.60;;
48241;SDS011;34041;51.812;4.622;2022-10-16T22:02:48;7.75;;;3.75;;
48241;SDS011;34041;51.812;4.622;2022-10-16T22:05:48;6.87;;;2.47;;
48241;SDS011;34041;51.812;4.622;2022-10-16T22:08:49;5.30;;;2.85;;
48241;SDS011;34041;51.812;4.622;2022-10-16T22:11:50;5.32;;;2.75;;
48241;SDS011;34041;51.812;4.622;2022-10-16T22:14:50;4.07;;;2.30;;
48241;SDS011;34041;51.812;4.622;2022-10-16T22:17:50;4.13;;;2.50;;
48241;SDS011;34041;51.812;4.622;2022-10-16T22:20:51;6.63;;;2.60;;
48241;SDS011;34041;51.812;4.622;2022-10-16T22:23:51;6.22;;;3.50;;
48241;SDS011;34041;51.812;4.622;2022-10-16T22:26:51;3.67;;;2.67;;
48241;SDS011;34041;51.812;4.622;2022-10-16T22:29:52;3.60;;;2.22;;
48241;SDS011;34041;51.812;4.622;2022-10-16T22:32:52;6.30;;;2.95;;
48241;SDS011;34041;51.812;4.622;2022-10-16T22:35:52;5.43;;;3.17;;
48241;SDS011;34041;51.812;4.622;2022-10-16T22:38:53;4.72;;;2.47;;
48241;SDS011;34041;51.812;4.622;2022-10-16T22:41:53;3.95;;;2.80;;
48241;SDS011;34041;51.812;4.622;2022-10-16T22:44:53;6.70;;;2.37;;
48241;SDS011;34041;51.812;4.622;2022-10-16T22:47:53;4.17;;;2.83;;
48241;SDS011;34041;51.812;4.622;2022-10-16T22:50:54;7.53;;;3.20;;
48241;SDS011;34041;51.812;4.622;2022-10-16T22:53:55;6.47;;;3.33;;
48241;SDS011;34041;51.812;4.622;2022-10-16T22:56:55;5.95;;;3.10;;
48241;SDS011;34041;51.812;4.622;2022-10-16T22:59:55;4.87;;;2.87;;
48241;SDS011;34041;51.812;4.622;2022-10-16T23:02:56;3.90;;;2.78;;
48241;SDS011;34041;51.812;4.622;2022-10-16T23:05:56;5.80;;;2.67;;
48241;SDS011;34041;51.812;4.622;2022-10-16T23:08:57;3.20;;;2.30;;
48241;SDS011;34041;51.812;4.622;2022-10-16T23:11:57;6.18;;;2.92;;
48241;SDS011;34041;51.812;4.622;2022-10-16T23:14:58;3.97;;;2.70;;
48241;SDS011;34041;51.812;4.622;2022-10-16T23:17:58;3.60;;;2.83;;
48241;SDS011;34041;51.812;4.622;2022-10-16T23:20:58;7.53;;;3.97;;
48241;SDS011;34041;51.812;4.622;2022-10-16T23:23:58;5.53;;;3.00;;
48241;SDS011;34041;51.812;4.622;2022-10-16T23:26:58;3.53;;;2.60;;
48241;SDS011;34041;51.812;4.622;2022-10-16T23:29:59;6.60;;;3.72;;
48241;SDS011;34041;51.812;4.622;2022-10-16T23:32:59;4.57;;;2.80;;
48241;SDS011;34041;51.812;4.622;2022-10-16T23:36:02;3.43;;;2.53;;
48241;SDS011;34041;51.812;4.622;2022-10-16T23:39:03;4.55;;;3.05;;
48241;SDS011;34041;51.812;4.622;2022-10-16T23:42:03;3.85;;;2.75;;
48241;SDS011;34041;51.812;4.622;2022-10-16T23:45:03;7.33;;;3.10;;
48241;SDS011;34041;51.812;4.622;2022-10-16T23:48:03;6.05;;;3.15;;
48241;SDS011;34041;51.812;4.622;2022-10-16T23:51:07;5.83;;;3.37;;
48241;SDS011;34041;51.812;4.622;2022-10-16T23:54:07;6.68;;;4.03;;
48241;SDS011;34041;51.812;4.622;2022-10-16T23:57:08;3.70;;;3.10;;
